Country
Station

 

Weather  for  Bremen  -  Germany    Germany

  
5 °C (41 °F)
    
 
 

Current METAR for Bremen is :

EDDW 221620Z 12005KT 9000 NSC 05/04 Q1007 NOSIG

 

This is a report for Bremen - Germany.
 
The report was made 16 minutes ago, at 16:20 UTC .
The wind was blowing at a speed of 2.6 meters per second (5.8 miles per hour) from east/southeast (120°).
 
The temperature was 5 °C (41 °F), with a dew-point at 4 °C (39 °F).
The atmospheric pressure was 1007 hPa (29.74 inHg).
The relative humidity was 93.2%.
 
The overall visibility was 9.0 kilometers (5.6 miles).
 

 
 
 
 

Country :   A   B   C   D   E   F   G   H   I   J   K   L   M   N   O   P   Q   R   S   T   U   V   W   Y   Z

 

Site Info  |  Disclaimer  |  Credits  |  Privacy
Contact us  |  Add to favorites
© 2013-2019 METARs - All rights reserved